Time;durP1;ratioP1;P1;durP2;ratioP2;P2;SDS_P1;SDS_P2;PMS_P1;PMS_P2;Temp;Humidity;BMP_temperature;BMP_pressure;BME280_temperature;BME280_humidity;BME280_pressure;Samples;Min_cycle;Max_cycle;Signal;HPM_P1;HPM_P2
2023/09/17 00:01:38;;;;;;;6.10;4.50;;;;;;;;;;6178340;23;20454;-90
2023/09/17 00:04:06;;;;;;;4.87;4.27;;;;;;;;;;6174150;23;20422;-90
2023/09/17 00:06:32;;;;;;;7.80;5.20;;;;;;;;;;6182831;23;20456;-90
2023/09/17 00:08:58;;;;;;;5.30;4.80;;;;;;;;;;6174433;23;20390;-90
2023/09/17 00:11:24;;;;;;;6.43;5.13;;;;;;;;;;6173989;23;20387;-90
2023/09/17 00:13:50;;;;;;;5.93;5.33;;;;;;;;;;6173903;23;20458;-90
2023/09/17 00:16:16;;;;;;;5.97;4.93;;;;;;;;;;6176407;23;20428;-91
2023/09/17 00:18:42;;;;;;;7.00;5.53;;;;;;;;;;6198724;23;20388;-90
2023/09/17 00:21:08;;;;;;;6.27;5.50;;;;;;;;;;6178077;23;20383;-89
2023/09/17 00:23:34;;;;;;;5.47;4.60;;;;;;;;;;6172193;23;20405;-90
2023/09/17 00:26:00;;;;;;;5.87;4.90;;;;;;;;;;6174533;23;20395;-90
2023/09/17 00:28:26;;;;;;;5.53;3.30;;;;;;;;;;6197191;23;20431;-90
2023/09/17 00:30:54;;;;;;;4.50;4.03;;;;;;;;;;6204801;23;20409;-90
2023/09/17 00:33:20;;;;;;;6.17;4.90;;;;;;;;;;6204671;23;20502;-89
2023/09/17 00:35:46;;;;;;;4.23;3.83;;;;;;;;;;6211466;23;20404;-90
2023/09/17 00:38:12;;;;;;;5.30;4.80;;;;;;;;;;6206901;23;20386;-90
2023/09/17 00:40:39;;;;;;;4.47;4.07;;;;;;;;;;6203191;23;20390;-89
2023/09/17 00:43:05;;;;;;;6.40;4.30;;;;;;;;;;6207060;23;20390;-90
2023/09/17 00:45:31;;;;;;;6.53;4.60;;;;;;;;;;6203353;23;20412;-90
2023/09/17 00:47:57;;;;;;;6.53;4.77;;;;;;;;;;6203475;23;20716;-90
2023/09/17 00:50:23;;;;;;;7.73;4.07;;;;;;;;;;6202358;23;20454;-90
2023/09/17 00:52:49;;;;;;;6.00;5.20;;;;;;;;;;6206144;23;20390;-90
2023/09/17 00:55:15;;;;;;;4.77;3.77;;;;;;;;;;6202020;23;20864;-90
2023/09/17 00:57:45;;;;;;;5.40;4.00;;;;;;;;;;6203397;23;20420;-90
2023/09/17 01:00:11;;;;;;;5.67;4.50;;;;;;;;;;6201631;23;20402;-89
2023/09/17 01:02:37;;;;;;;3.67;3.37;;;;;;;;;;6202530;23;20404;-90
2023/09/17 01:05:04;;;;;;;4.93;4.27;;;;;;;;;;6202110;23;20375;-89
2023/09/17 01:07:32;;;;;;;4.50;4.07;;;;;;;;;;6209610;23;20408;-90
2023/09/17 01:09:58;;;;;;;5.17;3.50;;;;;;;;;;6204562;23;20368;-90
2023/09/17 01:12:26;;;;;;;5.27;3.77;;;;;;;;;;6208376;23;20438;-90
2023/09/17 01:14:52;;;;;;;7.23;3.70;;;;;;;;;;6203837;23;20449;-90
2023/09/17 01:17:18;;;;;;;5.00;4.00;;;;;;;;;;6206055;23;20398;-90
2023/09/17 01:19:44;;;;;;;5.13;3.50;;;;;;;;;;6202637;23;20390;-90
2023/09/17 01:22:14;;;;;;;4.40;3.43;;;;;;;;;;6207491;23;20390;-89
2023/09/17 01:24:55;;;;;;;3.80;3.50;;;;;;;;;;6204755;23;20404;-90
2023/09/17 01:27:21;;;;;;;5.10;3.90;;;;;;;;;;6227330;23;20378;-89
2023/09/17 01:29:47;;;;;;;4.70;4.30;;;;;;;;;;6202206;23;20375;-89
2023/09/17 01:32:14;;;;;;;3.93;3.53;;;;;;;;;;6204390;23;20473;-90
2023/09/17 01:34:42;;;;;;;4.30;3.90;;;;;;;;;;6200820;23;20439;-90
2023/09/17 01:37:27;;;;;;;6.13;4.40;;;;;;;;;;6227822;23;20373;-90
2023/09/17 01:39:53;;;;;;;4.73;4.00;;;;;;;;;;6228204;23;20677;-90
2023/09/17 01:42:19;;;;;;;5.17;4.40;;;;;;;;;;6207279;23;20390;-89
2023/09/17 01:44:45;;;;;;;4.97;3.60;;;;;;;;;;6201839;23;20742;-90
2023/09/17 01:47:11;;;;;;;4.43;3.83;;;;;;;;;;6203315;23;20381;-89
2023/09/17 01:49:38;;;;;;;4.53;3.80;;;;;;;;;;6202727;23;20375;-89
2023/09/17 01:52:04;;;;;;;7.70;4.37;;;;;;;;;;6207021;23;20370;-89
2023/09/17 01:54:30;;;;;;;5.60;4.20;;;;;;;;;;6204094;23;20453;-90
2023/09/17 01:56:56;;;;;;;4.43;4.03;;;;;;;;;;6206861;23;20362;-89
2023/09/17 01:59:22;;;;;;;4.70;4.07;;;;;;;;;;6197002;23;20379;-90
2023/09/17 02:01:48;;;;;;;4.47;4.07;;;;;;;;;;6173848;23;20410;-89
2023/09/17 02:04:14;;;;;;;3.80;3.50;;;;;;;;;;6171774;23;20410;-89
2023/09/17 02:06:40;;;;;;;4.50;3.77;;;;;;;;;;6174969;23;20452;-90
2023/09/17 02:09:08;;;;;;;5.03;3.80;;;;;;;;;;6137763;23;20815;-90
2023/09/17 02:11:34;;;;;;;4.30;3.00;;;;;;;;;;6143076;23;21033;-89
2023/09/17 02:14:00;;;;;;;3.93;3.53;;;;;;;;;;6137459;23;20468;-90
2023/09/17 02:16:26;;;;;;;5.23;3.90;;;;;;;;;;6146248;23;20392;-90
2023/09/17 02:18:52;;;;;;;4.90;4.43;;;;;;;;;;6138568;23;20376;-89
2023/09/17 02:21:18;;;;;;;4.60;4.17;;;;;;;;;;6137647;23;20381;-89
2023/09/17 02:23:47;;;;;;;5.50;4.87;;;;;;;;;;6104204;23;20443;-88
2023/09/17 02:26:15;;;;;;;7.10;4.63;;;;;;;;;;6102522;23;20458;-89
2023/09/17 02:28:41;;;;;;;6.03;5.23;;;;;;;;;;6104246;23;20382;-89
2023/09/17 02:31:09;;;;;;;4.43;3.67;;;;;;;;;;6081241;23;20494;-89
2023/09/17 02:33:35;;;;;;;4.07;3.67;;;;;;;;;;6104642;23;20529;-89
2023/09/17 02:36:03;;;;;;;6.10;4.23;;;;;;;;;;6102545;23;20379;-89
2023/09/17 02:38:29;;;;;;;4.50;3.70;;;;;;;;;;6105312;23;20362;-90
2023/09/17 02:40:56;;;;;;;5.20;4.70;;;;;;;;;;6178262;23;20380;-90
2023/09/17 02:43:22;;;;;;;3.67;3.37;;;;;;;;;;6168980;23;20411;-89
2023/09/17 02:45:49;;;;;;;3.93;3.57;;;;;;;;;;6166902;23;20401;-89
2023/09/17 02:48:15;;;;;;;8.20;4.00;;;;;;;;;;6173060;23;20392;-90
2023/09/17 02:50:41;;;;;;;4.30;3.90;;;;;;;;;;6167000;23;21127;-89
2023/09/17 02:53:08;;;;;;;4.30;3.40;;;;;;;;;;6170905;23;20392;-89
2023/09/17 02:55:34;;;;;;;4.00;3.60;;;;;;;;;;6198286;23;20393;-89
2023/09/17 02:58:03;;;;;;;5.43;3.90;;;;;;;;;;6203904;23;20437;-89
2023/09/17 03:00:35;;;;;;;4.63;4.10;;;;;;;;;;6205234;23;20469;-89
2023/09/17 03:03:02;;;;;;;3.60;3.17;;;;;;;;;;6205741;23;20394;-89
2023/09/17 03:05:28;;;;;;;7.43;4.47;;;;;;;;;;6203611;23;20374;-90
2023/09/17 03:07:54;;;;;;;11.53;4.47;;;;;;;;;;6202305;23;20449;-89
2023/09/17 03:10:20;;;;;;;5.50;3.93;;;;;;;;;;6203193;23;20461;-89
2023/09/17 03:12:46;;;;;;;5.60;4.90;;;;;;;;;;6207695;23;20382;-90
2023/09/17 03:15:12;;;;;;;5.23;4.50;;;;;;;;;;6203969;23;20940;-90
2023/09/17 03:20:17;;;;;;;4.97;4.43;;;;;;;;;;6239855;22;20449;-89
2023/09/17 03:22:46;;;;;;;4.50;3.87;;;;;;;;;;6228457;23;20382;-89
2023/09/17 03:25:12;;;;;;;6.90;4.30;;;;;;;;;;6207061;23;20386;-89
2023/09/17 03:27:46;;;;;;;4.37;3.93;;;;;;;;;;6202145;23;21220;-89
2023/09/17 03:30:12;;;;;;;5.77;5.13;;;;;;;;;;6228510;23;20977;-90
2023/09/17 03:32:40;;;;;;;6.47;5.13;;;;;;;;;;6201370;23;20854;-91
2023/09/17 03:35:07;;;;;;;5.23;4.57;;;;;;;;;;6193929;23;20919;-91
2023/09/17 03:37:33;;;;;;;5.73;4.17;;;;;;;;;;6142812;23;20395;-91
2023/09/17 03:40:11;;;;;;;6.03;5.00;;;;;;;;;;6142887;23;20376;-90
2023/09/17 03:42:37;;;;;;;4.90;4.30;;;;;;;;;;6167259;23;20359;-90
2023/09/17 03:45:09;;;;;;;5.50;5.00;;;;;;;;;;6143291;23;20426;-90
2023/09/17 03:50:15;;;;;;;5.77;4.37;;;;;;;;;;6232884;22;21052;-90
2023/09/17 03:52:43;;;;;;;5.20;4.70;;;;;;;;;;6203626;23;20420;-90
2023/09/17 03:55:09;;;;;;;7.03;4.30;;;;;;;;;;6203183;23;20432;-90
2023/09/17 03:57:35;;;;;;;4.30;3.90;;;;;;;;;;6227786;23;20381;-91
2023/09/17 04:00:07;;;;;;;7.33;4.70;;;;;;;;;;6204890;23;20705;-90
2023/09/17 04:02:39;;;;;;;6.03;4.30;;;;;;;;;;6204650;23;20405;-91
2023/09/17 04:05:12;;;;;;;4.90;4.40;;;;;;;;;;6203282;23;20378;-90
2023/09/17 04:07:40;;;;;;;6.47;5.67;;;;;;;;;;6203828;23;20382;-90
2023/09/17 04:10:06;;;;;;;5.40;4.53;;;;;;;;;;6205114;23;20455;-90
2023/09/17 04:12:33;;;;;;;5.17;4.67;;;;;;;;;;6202995;23;20400;-91
2023/09/17 04:14:59;;;;;;;5.77;4.70;;;;;;;;;;6207379;23;20418;-91
2023/09/17 04:17:25;;;;;;;10.43;5.37;;;;;;;;;;6203064;23;20370;-91
2023/09/17 04:22:27;;;;;;;5.37;4.70;;;;;;;;;;6256168;22;21124;-89
2023/09/17 04:24:53;;;;;;;7.77;4.73;;;;;;;;;;6204416;23;20386;-91
2023/09/17 04:27:19;;;;;;;5.70;4.90;;;;;;;;;;6202937;23;20482;-88
2023/09/17 04:29:45;;;;;;;5.30;4.80;;;;;;;;;;6204394;23;20389;-91
2023/09/17 04:32:12;;;;;;;5.23;4.73;;;;;;;;;;6228209;23;20369;-91
2023/09/17 04:34:39;;;;;;;6.80;5.00;;;;;;;;;;6208569;23;20438;-91
2023/09/17 04:37:05;;;;;;;5.77;4.83;;;;;;;;;;6203077;22;20388;-89
2023/09/17 04:39:31;;;;;;;6.03;5.13;;;;;;;;;;6203444;23;20393;-91
2023/09/17 04:41:57;;;;;;;5.77;4.67;;;;;;;;;;6203496;23;20461;-90
2023/09/17 04:44:23;;;;;;;6.30;5.40;;;;;;;;;;6232296;23;20366;-91
2023/09/17 04:46:49;;;;;;;13.63;5.33;;;;;;;;;;6201026;23;20382;-91
2023/09/17 04:51:51;;;;;;;7.00;5.33;;;;;;;;;;6253705;22;20500;-92
2023/09/17 04:54:18;;;;;;;5.53;4.77;;;;;;;;;;6202131;23;20445;-91
2023/09/17 04:56:44;;;;;;;5.80;4.70;;;;;;;;;;6201896;23;20421;-92
2023/09/17 04:59:10;;;;;;;6.60;5.53;;;;;;;;;;6224806;23;20378;-91
2023/09/17 05:01:36;;;;;;;6.47;5.27;;;;;;;;;;6225895;23;20371;-92
2023/09/17 05:04:02;;;;;;;5.87;5.10;;;;;;;;;;6229865;23;20450;-92
2023/09/17 05:06:28;;;;;;;6.10;4.67;;;;;;;;;;6227465;23;20398;-91
2023/09/17 05:08:54;;;;;;;5.50;5.00;;;;;;;;;;6226041;23;20448;-92
2023/09/17 05:11:21;;;;;;;6.57;5.53;;;;;;;;;;6226496;23;20386;-92
2023/09/17 05:13:47;;;;;;;6.87;5.37;;;;;;;;;;6226618;23;20513;-92
2023/09/17 05:16:14;;;;;;;6.00;4.83;;;;;;;;;;6224647;23;20393;-92
2023/09/17 05:18:40;;;;;;;5.53;5.03;;;;;;;;;;6229121;23;20881;-89
2023/09/17 05:21:09;;;;;;;6.13;5.53;;;;;;;;;;6225137;23;20759;-90
2023/09/17 05:23:35;;;;;;;5.60;4.13;;;;;;;;;;6234827;23;20446;-92
2023/09/17 05:26:01;;;;;;;7.87;5.43;;;;;;;;;;6228321;23;20406;-90
2023/09/17 05:28:30;;;;;;;7.90;5.57;;;;;;;;;;6230257;23;20382;-92
2023/09/17 05:30:57;;;;;;;8.00;5.00;;;;;;;;;;6205991;23;20417;-89
2023/09/17 05:33:26;;;;;;;5.73;5.10;;;;;;;;;;6201168;23;20414;-91
2023/09/17 05:35:58;;;;;;;5.97;5.40;;;;;;;;;;6201063;23;20400;-90
2023/09/17 05:38:25;;;;;;;6.47;5.33;;;;;;;;;;6203786;23;20405;-90
2023/09/17 05:40:51;;;;;;;6.07;5.47;;;;;;;;;;6199726;22;20436;-90
2023/09/17 05:43:17;;;;;;;5.50;5.10;;;;;;;;;;6200438;23;20429;-91
2023/09/17 05:45:43;;;;;;;6.43;5.83;;;;;;;;;;6199833;23;20446;-90
2023/09/17 05:48:09;;;;;;;5.77;5.07;;;;;;;;;;6225966;23;20797;-89
2023/09/17 05:50:35;;;;;;;4.97;4.57;;;;;;;;;;6200105;23;20485;-90
2023/09/17 05:53:01;;;;;;;7.20;5.10;;;;;;;;;;6203313;23;20369;-90
2023/09/17 05:55:28;;;;;;;6.63;5.20;;;;;;;;;;6210367;23;20489;-91
2023/09/17 05:57:54;;;;;;;5.40;4.87;;;;;;;;;;6201576;23;20392;-90
2023/09/17 06:00:22;;;;;;;6.80;4.70;;;;;;;;;;6227283;23;20443;-90
2023/09/17 06:02:48;;;;;;;5.40;4.90;;;;;;;;;;6164293;23;20499;-91
2023/09/17 06:05:14;;;;;;;5.50;4.50;;;;;;;;;;6142827;23;20451;-91
2023/09/17 06:07:40;;;;;;;5.33;4.83;;;;;;;;;;6139234;23;20384;-90
2023/09/17 06:10:06;;;;;;;8.93;5.30;;;;;;;;;;6168610;23;20961;-90
2023/09/17 06:12:32;;;;;;;6.07;5.47;;;;;;;;;;6141340;23;20868;-91
2023/09/17 06:14:58;;;;;;;6.80;4.73;;;;;;;;;;6140996;23;20427;-91
2023/09/17 06:17:24;;;;;;;8.20;5.57;;;;;;;;;;6142129;23;20407;-91
2023/09/17 06:19:50;;;;;;;6.87;5.40;;;;;;;;;;6140853;23;20384;-91
2023/09/17 06:22:16;;;;;;;6.40;4.63;;;;;;;;;;6144256;23;20479;-92
2023/09/17 06:24:43;;;;;;;5.77;5.27;;;;;;;;;;6142367;23;20380;-91
2023/09/17 06:27:11;;;;;;;5.77;5.23;;;;;;;;;;6146616;23;20379;-90
2023/09/17 06:29:38;;;;;;;5.07;4.23;;;;;;;;;;6139741;23;20441;-91
2023/09/17 06:32:04;;;;;;;7.40;5.87;;;;;;;;;;6143262;23;20376;-91
2023/09/17 06:34:30;;;;;;;6.00;4.90;;;;;;;;;;6190374;23;20449;-92
2023/09/17 06:36:56;;;;;;;5.97;4.80;;;;;;;;;;6205014;23;20438;-91
2023/09/17 06:39:22;;;;;;;5.20;4.70;;;;;;;;;;6201941;23;20369;-90
2023/09/17 06:41:48;;;;;;;5.40;4.90;;;;;;;;;;6206108;23;20389;-91
2023/09/17 06:44:14;;;;;;;5.27;4.77;;;;;;;;;;6201973;23;20390;-91
2023/09/17 06:46:40;;;;;;;6.77;5.80;;;;;;;;;;6204148;23;20968;-90
2023/09/17 06:49:06;;;;;;;11.70;4.87;;;;;;;;;;6205312;23;20418;-91
2023/09/17 06:51:33;;;;;;;5.20;4.70;;;;;;;;;;6208243;23;20433;-91
2023/09/17 06:53:59;;;;;;;5.87;5.27;;;;;;;;;;6205995;23;20409;-91
2023/09/17 06:56:25;;;;;;;5.90;5.07;;;;;;;;;;6204928;23;20977;-92
2023/09/17 06:58:51;;;;;;;5.80;4.73;;;;;;;;;;6206351;23;20389;-91
2023/09/17 07:01:18;;;;;;;6.50;4.43;;;;;;;;;;6203419;23;20394;-91
2023/09/17 07:03:45;;;;;;;6.13;5.53;;;;;;;;;;6239550;23;20380;-91
2023/09/17 07:06:11;;;;;;;6.10;5.50;;;;;;;;;;6203241;23;20465;-91
2023/09/17 07:08:38;;;;;;;10.80;6.40;;;;;;;;;;6206454;23;20449;-92
2023/09/17 07:11:04;;;;;;;5.60;5.00;;;;;;;;;;6205074;23;20750;-92
2023/09/17 07:13:31;;;;;;;5.63;5.13;;;;;;;;;;6205238;23;20437;-91
2023/09/17 07:15:57;;;;;;;6.77;5.97;;;;;;;;;;6204079;23;20383;-92
2023/09/17 07:18:26;;;;;;;7.37;5.90;;;;;;;;;;6206006;23;20408;-91
2023/09/17 07:20:52;;;;;;;7.20;6.17;;;;;;;;;;6204776;23;20386;-91
2023/09/17 07:23:18;;;;;;;6.17;5.23;;;;;;;;;;6204704;23;20386;-91
2023/09/17 07:25:47;;;;;;;7.70;6.10;;;;;;;;;;6206654;23;20466;-92
2023/09/17 07:28:13;;;;;;;7.30;5.60;;;;;;;;;;6206308;22;20442;-91
2023/09/17 07:30:39;;;;;;;6.33;5.73;;;;;;;;;;6206025;23;20382;-92
2023/09/17 07:33:06;;;;;;;5.90;5.30;;;;;;;;;;6204222;23;20454;-91
2023/09/17 07:35:32;;;;;;;6.40;5.80;;;;;;;;;;6207987;23;20370;-91
2023/09/17 07:37:59;;;;;;;5.30;3.93;;;;;;;;;;6203791;23;20417;-91
2023/09/17 07:40:25;;;;;;;4.40;4.00;;;;;;;;;;6207378;23;20389;-91
2023/09/17 07:42:51;;;;;;;5.50;3.97;;;;;;;;;;6201146;23;20441;-91
2023/09/17 07:45:18;;;;;;;4.20;3.80;;;;;;;;;;6206961;23;20397;-92
2023/09/17 07:47:44;;;;;;;6.00;4.43;;;;;;;;;;6227980;23;20826;-90
2023/09/17 07:50:10;;;;;;;7.27;4.37;;;;;;;;;;6201652;23;20414;-92
2023/09/17 07:52:37;;;;;;;9.10;4.03;;;;;;;;;;6203467;23;20398;-92
2023/09/17 07:55:04;;;;;;;4.90;4.50;;;;;;;;;;6205049;23;20441;-91
2023/09/17 07:57:30;;;;;;;4.13;3.73;;;;;;;;;;6203898;23;20390;-92
2023/09/17 07:59:56;;;;;;;5.37;4.00;;;;;;;;;;6202912;23;20378;-91
2023/09/17 08:02:22;;;;;;;3.70;3.33;;;;;;;;;;6203234;23;20359;-91
2023/09/17 08:04:48;;;;;;;5.50;3.30;;;;;;;;;;6211341;23;20644;-92
2023/09/17 08:07:14;;;;;;;3.07;2.43;;;;;;;;;;6202354;23;20378;-92
2023/09/17 08:09:41;;;;;;;3.50;2.93;;;;;;;;;;6203735;23;20382;-91
2023/09/17 08:12:08;;;;;;;4.00;2.67;;;;;;;;;;6166578;23;20778;-91
2023/09/17 08:14:34;;;;;;;4.40;3.00;;;;;;;;;;6144973;23;20448;-92
2023/09/17 08:17:01;;;;;;;3.83;3.07;;;;;;;;;;6144032;23;20368;-92
2023/09/17 08:19:27;;;;;;;3.73;2.80;;;;;;;;;;6142882;23;20372;-92
2023/09/17 08:21:55;;;;;;;6.53;3.27;;;;;;;;;;6142877;23;20380;-92
2023/09/17 08:24:22;;;;;;;4.00;3.60;;;;;;;;;;6140022;23;20400;-91
2023/09/17 08:26:49;;;;;;;6.23;3.50;;;;;;;;;;6141410;23;21178;-91
2023/09/17 08:29:15;;;;;;;3.47;2.33;;;;;;;;;;6140103;23;20388;-91
2023/09/17 08:31:41;;;;;;;4.03;3.00;;;;;;;;;;6142964;23;20476;-92
2023/09/17 08:34:06;;;;;;;2.93;2.50;;;;;;;;;;6139391;23;20420;-92
2023/09/17 08:36:33;;;;;;;6.10;3.20;;;;;;;;;;6148848;23;20407;-92
2023/09/17 08:39:01;;;;;;;5.80;2.57;;;;;;;;;;6143379;23;20392;-92
2023/09/17 08:41:27;;;;;;;6.23;3.07;;;;;;;;;;6145840;23;20388;-93
2023/09/17 08:43:53;;;;;;;6.43;2.60;;;;;;;;;;6141769;23;20394;-92
2023/09/17 08:46:20;;;;;;;5.83;2.90;;;;;;;;;;6145733;23;20734;-91
2023/09/17 08:48:46;;;;;;;3.80;2.73;;;;;;;;;;6146861;23;20398;-92
2023/09/17 08:51:13;;;;;;;6.30;3.00;;;;;;;;;;6143222;23;20420;-92
2023/09/17 08:53:57;;;;;;;7.93;3.63;;;;;;;;;;6147173;23;20466;-93
2023/09/17 08:56:27;;;;;;;4.00;3.60;;;;;;;;;;6208843;22;20398;-93
2023/09/17 08:58:53;;;;;;;5.77;3.37;;;;;;;;;;6206592;23;20382;-93
2023/09/17 09:01:20;;;;;;;5.00;2.70;;;;;;;;;;6202501;23;20389;-93
2023/09/17 09:03:46;;;;;;;4.73;3.17;;;;;;;;;;6206097;23;20473;-92
2023/09/17 09:06:13;;;;;;;4.27;3.27;;;;;;;;;;6202095;23;20366;-92
2023/09/17 09:08:52;;;;;;;5.43;3.43;;;;;;;;;;6212240;23;20390;-94
2023/09/17 09:11:22;;;;;;;4.63;3.10;;;;;;;;;;6166550;23;20421;-96
2023/09/17 09:16:57;;;;;;;3.80;2.57;;;;;;;;;;6158796;23;20402;-94
2023/09/17 09:19:23;;;;;;;8.00;3.03;;;;;;;;;;6175330;23;20385;-95
2023/09/17 09:21:49;;;;;;;3.70;2.50;;;;;;;;;;6146627;23;20415;-96
2023/09/17 11:42:02;;;;;;;3.60;2.77;;;;;;;;;;6291348;22;20435;-94
2023/09/17 11:44:38;;;;;;;6.13;2.07;;;;;;;;;;6245242;22;20405;-93
2023/09/17 11:47:04;;;;;;;3.20;2.13;;;;;;;;;;6263142;22;20373;-95
2023/09/17 11:49:31;;;;;;;2.37;1.90;;;;;;;;;;6241157;22;20403;-95
2023/09/17 11:51:59;;;;;;;4.30;2.20;;;;;;;;;;6265284;22;20377;-95
2023/09/17 11:54:33;;;;;;;2.90;2.20;;;;;;;;;;6242900;22;20983;-95
2023/09/17 11:57:00;;;;;;;3.67;2.37;;;;;;;;;;6243589;22;20386;-95
2023/09/17 12:52:00;;;;;;;4.80;2.50;;;;;;;;;;6256822;22;20495;-96
2023/09/17 12:54:32;;;;;;;5.80;2.37;;;;;;;;;;6237715;23;20422;-95
2023/09/17 12:56:59;;;;;;;4.57;2.20;;;;;;;;;;6231996;23;20404;-95
2023/09/17 15:26:54;;;;;;;3.73;2.30;;;;;;;;;;6259267;22;20433;-94
2023/09/17 15:29:21;;;;;;;3.20;2.53;;;;;;;;;;6204890;23;20429;-94
2023/09/17 15:31:50;;;;;;;4.70;2.10;;;;;;;;;;6204290;23;20394;-93
2023/09/17 15:36:52;;;;;;;2.60;2.00;;;;;;;;;;6219964;22;20478;-93
2023/09/17 15:39:19;;;;;;;3.17;2.20;;;;;;;;;;6196503;23;20368;-94
2023/09/17 15:41:45;;;;;;;3.50;2.47;;;;;;;;;;6170930;23;20400;-94
2023/09/17 15:44:15;;;;;;;5.40;2.07;;;;;;;;;;6199485;23;20372;-94
2023/09/17 15:46:41;;;;;;;5.77;2.83;;;;;;;;;;6142084;23;20385;-94
2023/09/17 15:49:07;;;;;;;4.80;2.40;;;;;;;;;;6116207;23;20401;-94
2023/09/17 15:51:33;;;;;;;3.97;1.90;;;;;;;;;;6116115;23;20393;-94
2023/09/17 15:53:59;;;;;;;4.13;2.20;;;;;;;;;;6119616;23;20421;-92
2023/09/17 15:56:25;;;;;;;3.10;2.30;;;;;;;;;;6119612;23;20381;-93
2023/09/17 15:58:52;;;;;;;3.93;2.20;;;;;;;;;;6120050;23;20384;-94
2023/09/17 16:01:18;;;;;;;6.13;2.20;;;;;;;;;;6119215;23;20401;-94
2023/09/17 16:03:44;;;;;;;3.20;2.10;;;;;;;;;;6126367;23;20416;-94
2023/09/17 16:06:11;;;;;;;2.43;1.83;;;;;;;;;;6122218;23;20393;-95
2023/09/17 16:37:11;;;;;;;3.57;2.10;;;;;;;;;;6211145;22;20488;-94
2023/09/17 16:39:43;;;;;;;3.73;2.27;;;;;;;;;;6184034;23;20386;-94
2023/09/17 16:42:26;;;;;;;3.73;2.27;;;;;;;;;;6214290;22;20375;-95
2023/09/17 16:44:55;;;;;;;3.63;2.03;;;;;;;;;;6227219;23;20370;-94
2023/09/17 16:47:22;;;;;;;4.20;2.47;;;;;;;;;;6208330;23;20469;-94
2023/09/17 16:49:48;;;;;;;3.90;2.47;;;;;;;;;;6203224;23;20863;-95
2023/09/17 16:52:18;;;;;;;5.90;3.10;;;;;;;;;;6207539;23;20512;-95
2023/09/17 16:54:44;;;;;;;6.93;2.73;;;;;;;;;;6204473;23;20461;-96
2023/09/17 16:57:12;;;;;;;9.33;2.87;;;;;;;;;;6207239;23;20481;-96
2023/09/17 16:59:38;;;;;;;4.00;2.70;;;;;;;;;;6204129;22;20433;-96
2023/09/17 17:02:07;;;;;;;6.67;3.07;;;;;;;;;;6203142;23;20378;-95
2023/09/17 17:04:36;;;;;;;3.30;2.27;;;;;;;;;;6204761;23;20397;-95
2023/09/17 17:07:12;;;;;;;3.50;2.23;;;;;;;;;;6228499;22;20366;-96
2023/09/17 17:09:49;;;;;;;4.70;3.60;;;;;;;;;;6224982;22;20404;-95
2023/09/17 17:12:15;;;;;;;3.93;2.77;;;;;;;;;;6205649;23;20385;-96
2023/09/17 17:14:41;;;;;;;5.83;2.90;;;;;;;;;;6202890;23;20501;-96
2023/09/17 17:17:08;;;;;;;6.73;4.17;;;;;;;;;;6207945;23;20449;-96
2023/09/17 17:19:34;;;;;;;5.43;4.03;;;;;;;;;;6201876;23;20948;-96
2023/09/17 17:22:01;;;;;;;7.90;3.50;;;;;;;;;;6205487;23;20382;-96
2023/09/17 17:24:27;;;;;;;6.47;3.77;;;;;;;;;;6230961;23;20780;-95
2023/09/17 17:26:57;;;;;;;8.20;4.40;;;;;;;;;;6205949;23;20854;-95
2023/09/17 17:29:37;;;;;;;8.40;5.30;;;;;;;;;;6230128;23;20386;-93
2023/09/17 17:45:46;;;;;;;7.73;5.17;;;;;;;;;;6230229;22;20437;-96
2023/09/17 17:50:47;;;;;;;4.30;3.33;;;;;;;;;;6254513;22;20425;-94
2023/09/17 17:53:14;;;;;;;7.53;4.03;;;;;;;;;;6207133;23;20378;-94
2023/09/17 17:55:40;;;;;;;4.90;4.20;;;;;;;;;;6201363;23;20441;-93
2023/09/17 17:58:09;;;;;;;11.60;6.93;;;;;;;;;;6206446;23;20459;-93
2023/09/17 18:00:35;;;;;;;6.10;3.60;;;;;;;;;;6203130;23;20455;-96
2023/09/17 18:03:01;;;;;;;4.00;2.90;;;;;;;;;;6202935;23;20413;-93
2023/09/17 18:05:28;;;;;;;4.03;2.40;;;;;;;;;;6201590;23;21032;-93
2023/09/17 18:07:55;;;;;;;7.90;5.07;;;;;;;;;;6164840;23;20474;-93
2023/09/17 18:10:22;;;;;;;6.13;3.93;;;;;;;;;;6160790;23;20436;-93
2023/09/17 18:12:52;;;;;;;3.37;2.67;;;;;;;;;;6168569;23;20523;-94
2023/09/17 18:15:20;;;;;;;6.27;3.43;;;;;;;;;;6193759;23;20496;-93
2023/09/17 18:18:11;;;;;;;3.70;2.90;;;;;;;;;;6168583;23;20376;-93
2023/09/17 18:20:40;;;;;;;4.43;3.50;;;;;;;;;;6167757;23;20848;-95
2023/09/17 18:23:06;;;;;;;6.67;3.30;;;;;;;;;;6169115;23;20392;-94
2023/09/17 18:25:34;;;;;;;6.30;2.93;;;;;;;;;;6168500;23;20406;-94
2023/09/17 18:28:00;;;;;;;6.27;2.80;;;;;;;;;;6171525;23;20384;-92
2023/09/17 18:30:27;;;;;;;6.80;3.00;;;;;;;;;;6165176;23;20396;-94
2023/09/17 18:32:55;;;;;;;6.10;3.00;;;;;;;;;;6192885;23;20404;-94
2023/09/17 18:35:22;;;;;;;6.27;3.50;;;;;;;;;;6168269;23;20420;-95
2023/09/17 18:37:48;;;;;;;3.67;2.43;;;;;;;;;;6173219;23;20364;-94
2023/09/17 18:40:14;;;;;;;8.50;4.67;;;;;;;;;;6204291;23;20841;-94
2023/09/17 18:42:42;;;;;;;3.10;2.53;;;;;;;;;;6204748;23;20459;-93
2023/09/17 18:45:09;;;;;;;5.83;2.53;;;;;;;;;;6202267;23;20374;-94
2023/09/17 18:47:36;;;;;;;3.63;2.60;;;;;;;;;;6204783;23;20390;-95
2023/09/17 18:50:02;;;;;;;4.60;2.40;;;;;;;;;;6229259;23;21048;-94
2023/09/17 18:57:43;;;;;;;4.97;2.33;;;;;;;;;;6255058;22;20467;-94
2023/09/17 19:00:10;;;;;;;5.27;2.43;;;;;;;;;;6229805;23;20444;-95
2023/09/17 19:02:39;;;;;;;7.37;2.70;;;;;;;;;;6203415;23;20477;-93
2023/09/17 19:05:07;;;;;;;4.00;2.63;;;;;;;;;;6205222;23;20390;-93
2023/09/17 19:07:36;;;;;;;3.80;2.83;;;;;;;;;;6207203;23;20417;-94
2023/09/17 19:10:04;;;;;;;5.77;3.10;;;;;;;;;;6174772;23;20415;-95
2023/09/17 19:12:30;;;;;;;5.03;2.90;;;;;;;;;;6206196;23;20405;-94
2023/09/17 19:14:57;;;;;;;5.70;3.00;;;;;;;;;;6205936;23;20429;-93
2023/09/17 19:17:23;;;;;;;4.17;2.60;;;;;;;;;;6204427;23;20642;-94
2023/09/17 19:19:49;;;;;;;8.77;2.67;;;;;;;;;;6202993;23;20385;-93
2023/09/17 19:22:16;;;;;;;3.63;2.77;;;;;;;;;;6204814;23;20399;-93
2023/09/17 19:24:43;;;;;;;3.77;2.43;;;;;;;;;;6235015;23;20371;-94
2023/09/17 19:27:09;;;;;;;4.10;2.50;;;;;;;;;;6204398;23;21185;-94
2023/09/17 19:29:35;;;;;;;4.67;2.40;;;;;;;;;;6234375;23;20378;-93
2023/09/17 19:32:01;;;;;;;11.03;2.73;;;;;;;;;;6222210;23;20394;-93
2023/09/17 19:34:27;;;;;;;4.73;2.80;;;;;;;;;;6230362;23;20422;-95
2023/09/17 19:36:53;;;;;;;3.20;2.80;;;;;;;;;;6227992;23;20385;-92
2023/09/17 19:39:19;;;;;;;3.83;3.13;;;;;;;;;;6231825;23;20398;-92
2023/09/17 19:41:46;;;;;;;4.40;3.00;;;;;;;;;;6227257;23;20374;-93
2023/09/17 19:44:12;;;;;;;3.17;2.57;;;;;;;;;;6228300;23;20370;-93
2023/09/17 19:46:41;;;;;;;6.70;3.40;;;;;;;;;;6225368;22;20390;-92
2023/09/17 19:49:07;;;;;;;5.33;3.10;;;;;;;;;;6225540;23;20417;-92
2023/09/17 19:51:35;;;;;;;6.63;3.67;;;;;;;;;;6223374;23;20382;-92
2023/09/17 19:54:04;;;;;;;4.13;3.00;;;;;;;;;;6235756;23;20480;-92
2023/09/17 19:56:30;;;;;;;4.70;2.90;;;;;;;;;;6223607;23;20417;-92
2023/09/17 19:58:56;;;;;;;4.10;2.53;;;;;;;;;;6227634;23;21246;-92
2023/09/17 20:01:22;;;;;;;5.33;3.00;;;;;;;;;;6224036;23;20477;-93
2023/09/17 20:03:55;;;;;;;5.30;2.93;;;;;;;;;;6233502;23;20740;-93
2023/09/17 20:06:22;;;;;;;3.90;3.30;;;;;;;;;;6227870;23;20386;-93
2023/09/17 20:08:54;;;;;;;5.77;2.43;;;;;;;;;;6227993;23;20469;-93
2023/09/17 20:11:20;;;;;;;3.47;2.90;;;;;;;;;;6200085;23;20469;-93
2023/09/17 20:13:46;;;;;;;6.00;2.50;;;;;;;;;;6201526;23;20434;-94
2023/09/17 20:16:15;;;;;;;4.00;3.57;;;;;;;;;;6200480;23;20492;-92
2023/09/17 20:18:41;;;;;;;7.60;3.43;;;;;;;;;;6204538;23;20418;-93
2023/09/17 20:21:08;;;;;;;7.53;2.87;;;;;;;;;;6203452;23;20413;-94
2023/09/17 20:23:49;;;;;;;4.40;3.40;;;;;;;;;;6203514;23;20378;-93
2023/09/17 20:26:31;;;;;;;4.37;3.27;;;;;;;;;;6209512;23;20752;-95
2023/09/17 20:28:58;;;;;;;4.03;3.23;;;;;;;;;;6225988;23;20960;-93
2023/09/17 20:31:24;;;;;;;5.13;3.10;;;;;;;;;;6200586;23;20436;-92
2023/09/17 20:33:50;;;;;;;5.27;2.90;;;;;;;;;;6203122;23;20414;-91
2023/09/17 20:36:16;;;;;;;6.03;3.33;;;;;;;;;;6225282;23;20921;-91
2023/09/17 20:38:46;;;;;;;7.87;3.03;;;;;;;;;;6227406;23;20522;-94
2023/09/17 20:41:15;;;;;;;5.33;3.07;;;;;;;;;;6228357;23;20390;-92
2023/09/17 20:43:42;;;;;;;8.63;3.30;;;;;;;;;;6225245;23;20480;-93
2023/09/17 20:46:08;;;;;;;4.67;2.93;;;;;;;;;;6223807;23;20427;-93
2023/09/17 20:48:37;;;;;;;4.47;3.03;;;;;;;;;;6225893;23;20386;-92
2023/09/17 20:51:03;;;;;;;5.63;3.17;;;;;;;;;;6193352;23;20395;-93
2023/09/17 20:53:30;;;;;;;4.83;3.50;;;;;;;;;;6170353;23;20375;-93
2023/09/17 20:58:50;;;;;;;4.33;3.00;;;;;;;;;;6268727;22;20428;-92
2023/09/17 21:01:17;;;;;;;8.00;3.53;;;;;;;;;;6200052;23;20378;-93
2023/09/17 21:03:44;;;;;;;4.23;3.00;;;;;;;;;;6200544;23;20366;-94
2023/09/17 21:06:10;;;;;;;3.73;2.90;;;;;;;;;;6201741;23;20362;-94
2023/09/17 21:08:36;;;;;;;4.50;2.60;;;;;;;;;;6208776;22;20373;-92
2023/09/17 21:11:02;;;;;;;3.57;3.27;;;;;;;;;;6199008;23;20382;-93
2023/09/17 21:13:28;;;;;;;5.00;3.60;;;;;;;;;;6206138;23;20784;-92
2023/09/17 21:15:55;;;;;;;6.30;3.40;;;;;;;;;;6225955;23;20473;-92
2023/09/17 21:18:21;;;;;;;4.83;3.23;;;;;;;;;;6204725;23;20382;-96
2023/09/17 21:20:50;;;;;;;5.20;3.00;;;;;;;;;;6203167;23;20408;-94
2023/09/17 21:23:16;;;;;;;5.97;3.33;;;;;;;;;;6202126;23;20424;-93
2023/09/17 21:25:42;;;;;;;4.50;3.00;;;;;;;;;;6203133;23;20378;-93
2023/09/17 21:28:13;;;;;;;5.43;3.60;;;;;;;;;;6208596;22;20367;-94
2023/09/17 21:30:43;;;;;;;6.17;4.43;;;;;;;;;;6226994;23;20379;-92